Surgut Airport
USRR : now visible

Airfield :











YOU CAN JOIN US ON...

 
LOGIN :

Register | Disclaimer

   EN    FR    IT 

 









Legend :    VFR   Marginal VFR   IFR   Intensive IFR   Very Intensive IFR
Visi :
Ceiling :
>= 8 km
>= 3000ft
5 to 8 km
1000 to 3000 ft
1500m to 5 km
500 to 1000 ft
800 to 1500m
200 to 500 ft
< 800m
< 200 ft
Symbols :   Thunderstorms  Fog  Heavy snow  Heavy precipitations  Wind > 20 kt






- Airport Elevation : 200 ft
- IATA code : SGC


USRR - Surgut

CURRENT METAR :
  • 192100Z 16004MPS CAVOK 09/09 Q1005 R25/CLRD60 NOSIG RMK QFE748

EXPIRED METARs :
  • 192030Z 15004MPS CAVOK 09/09 Q1005 R25/CLRD60 NOSIG RMK QFE748
  • 192000Z 15003MPS CAVOK 09/09 Q1005 R25/CLRD60 NOSIG RMK QFE748
  • 191930Z 15003MPS CAVOK 09/09 Q1005 R25/CLRD60 NOSIG RMK QFE748
  • 191900Z 15003MPS CAVOK 09/09 Q1005 R25/CLRD60 NOSIG RMK QFE749
  • 191830Z 15003MPS 110V180 9999 SCT008 09/09 Q1006 R25/CLRD60 NOSIG RMK QFE749

TAF TAF USRR
Valid from the 19 at 21:00 until the 20 at 21:00 UTC


191955Z 1921/2021 17005G10MPS 9999 BKN016
TEMPO 1921/2002 4000 -SHRA BR SCT005 BKN017CB
BECMG 2002/2004 20006G12MPS BKN020
USRR FIR / Asia



MET'MAP, your aeronautical weather chart ! - Copyright ORBIFLY December 2007 - Disclaimer

ORBIFLY MET'MAP TEAM :

Programming & Development : Alexandra Zaïnal
Concept & original design : Baudouin d'Aumeries
Assistance for programming : Marc-Olivier Méhu
Technical & hardware support : Manuel Goepfert

Contact : metmap@orbifly.com




SOURCES & CREDITS :

   NOAA       Earth
Advisory